Time;durP1;ratioP1;P1;durP2;ratioP2;P2;SDS_P1;SDS_P2;PMS_P1;PMS_P2;Temp;Humidity;BMP_temperature;BMP_pressure;BME280_temperature;BME280_humidity;BME280_pressure;Samples;Min_cycle;Max_cycle;Signal;HPM_P1;HPM_P2
2022/01/08 00:01:55;;;;;;;1.70;1.10;;;18.50;50.60;;;;;;5141196;27;20182;-84
2022/01/08 00:04:20;;;;;;;3.78;1.10;;;18.50;50.90;;;;;;5140792;27;20155;-83
2022/01/08 00:06:52;;;;;;;1.80;1.13;;;18.50;50.90;;;;;;5139739;27;20151;-83
2022/01/08 00:09:19;;;;;;;3.58;1.40;;;18.40;51.00;;;;;;5123395;27;20167;-84
2022/01/08 00:11:48;;;;;;;2.58;1.15;;;18.40;51.00;;;;;;5140539;27;20151;-84
2022/01/08 00:14:15;;;;;;;1.77;1.08;;;18.40;51.10;;;;;;5141102;27;20160;-83
2022/01/08 00:16:41;;;;;;;2.50;1.08;;;18.40;51.10;;;;;;5123984;27;20166;-84
2022/01/08 00:19:07;;;;;;;3.25;0.90;;;18.40;51.30;;;;;;5141617;27;20167;-83
2022/01/08 00:21:34;;;;;;;2.55;0.88;;;18.40;51.20;;;;;;5106321;27;20385;-84
2022/01/08 00:24:03;;;;;;;3.45;1.10;;;18.40;51.40;;;;;;5123133;27;20168;-84
2022/01/08 00:26:28;;;;;;;3.88;1.30;;;18.30;51.60;;;;;;5123543;27;20167;-84
2022/01/08 00:29:00;;;;;;;2.25;1.15;;;18.30;51.50;;;;;;5106357;27;20160;-84
2022/01/08 00:31:29;;;;;;;2.60;1.20;;;18.40;51.50;;;;;;5122936;27;20163;-84
2022/01/08 00:33:57;;;;;;;2.47;1.10;;;18.30;51.50;;;;;;5139998;27;20242;-84
2022/01/08 00:36:23;;;;;;;2.25;0.90;;;18.30;51.50;;;;;;5123490;27;20170;-84
2022/01/08 00:38:52;;;;;;;2.08;0.90;;;18.30;51.50;;;;;;5139332;27;20171;-84
2022/01/08 00:41:18;;;;;;;2.50;0.90;;;18.30;51.50;;;;;;5139916;27;20179;-84
2022/01/08 00:43:44;;;;;;;1.88;0.90;;;18.20;51.70;;;;;;5139583;27;20271;-83
2022/01/08 00:46:12;;;;;;;3.13;1.27;;;18.20;51.70;;;;;;5122659;27;20171;-84
2022/01/08 00:48:40;;;;;;;1.83;1.00;;;18.20;51.60;;;;;;5122765;27;20186;-83
2022/01/08 00:51:06;;;;;;;3.30;1.20;;;18.20;51.70;;;;;;5122877;27;20191;-84
2022/01/08 00:53:31;;;;;;;3.55;1.05;;;18.20;52.30;;;;;;5139779;27;20164;-84
2022/01/08 00:55:59;;;;;;;2.53;1.30;;;18.20;51.70;;;;;;5140437;27;20199;-83
2022/01/08 00:58:25;;;;;;;1.42;0.98;;;18.20;51.80;;;;;;5122698;27;20247;-83
2022/01/08 01:00:50;;;;;;;1.65;1.00;;;18.20;51.80;;;;;;5084984;28;20187;-83
2022/01/08 01:03:18;;;;;;;3.67;1.08;;;18.20;51.70;;;;;;5084969;28;20705;-84
2022/01/08 01:05:44;;;;;;;1.70;1.00;;;18.10;51.70;;;;;;5085301;28;20254;-84
2022/01/08 01:08:15;;;;;;;2.15;0.93;;;18.20;51.60;;;;;;5085014;28;20244;-84
2022/01/08 01:10:41;;;;;;;1.70;0.90;;;18.20;51.70;;;;;;5101683;28;20179;-83
2022/01/08 01:13:07;;;;;;;2.97;1.20;;;18.20;51.60;;;;;;5085328;28;20167;-83
2022/01/08 01:15:35;;;;;;;4.15;1.30;;;18.20;51.70;;;;;;5102375;28;20176;-84
2022/01/08 01:18:00;;;;;;;2.13;0.98;;;18.20;51.70;;;;;;5084426;28;20163;-83
2022/01/08 01:20:28;;;;;;;2.55;1.30;;;18.20;51.90;;;;;;5085179;28;20188;-84
2022/01/08 01:23:01;;;;;;;1.98;1.20;;;18.10;51.80;;;;;;5085332;28;20179;-84
2022/01/08 01:25:42;;;;;;;2.20;1.00;;;18.20;51.90;;;;;;5086976;28;20239;-84
2022/01/08 01:42:06;;;;;;;2.70;1.20;;;18.10;52.10;;;;;;5089204;28;20160;-84
2022/01/08 01:47:19;;;;;;;3.88;1.13;;;18.10;52.00;;;;;;5088881;28;20622;-84
2022/01/08 01:49:46;;;;;;;1.83;1.08;;;18.10;52.00;;;;;;5100845;28;20220;-84
2022/01/08 01:52:13;;;;;;;2.25;1.20;;;18.10;52.10;;;;;;5084518;28;20152;-84
2022/01/08 01:54:39;;;;;;;4.20;1.00;;;18.10;52.10;;;;;;5101463;28;20159;-84
2022/01/08 01:57:05;;;;;;;3.22;1.00;;;18.10;51.90;;;;;;5085637;28;20223;-85
2022/01/08 01:59:33;;;;;;;2.17;1.10;;;18.10;52.10;;;;;;5101327;28;20666;-83
2022/01/08 02:02:02;;;;;;;1.70;0.93;;;18.00;52.10;;;;;;5118090;28;20610;-83
2022/01/08 02:04:29;;;;;;;1.08;0.90;;;18.00;52.10;;;;;;5085065;28;20156;-83
2022/01/08 02:06:55;;;;;;;3.50;1.15;;;18.10;52.20;;;;;;5101884;28;20488;-84
2022/01/08 02:09:21;;;;;;;2.83;1.02;;;18.10;52.20;;;;;;5101340;28;20166;-82
2022/01/08 02:12:00;;;;;;;1.58;0.80;;;18.10;52.00;;;;;;5085215;28;20172;-83
2022/01/08 02:14:27;;;;;;;2.45;0.82;;;18.10;51.90;;;;;;5118197;28;20159;-83
2022/01/08 02:16:55;;;;;;;1.33;0.80;;;18.10;52.00;;;;;;5101265;28;20182;-83
2022/01/08 02:19:26;;;;;;;3.20;1.27;;;18.00;52.10;;;;;;5100917;28;20188;-83
2022/01/08 02:21:57;;;;;;;1.58;0.90;;;18.10;52.20;;;;;;5101537;28;20171;-83
2022/01/08 02:24:26;;;;;;;3.72;0.98;;;18.10;52.20;;;;;;5101860;28;20186;-83
2022/01/08 02:26:54;;;;;;;1.00;0.90;;;18.00;52.10;;;;;;5100919;28;20152;-83
2022/01/08 02:29:23;;;;;;;2.70;0.90;;;18.00;52.20;;;;;;5083876;28;20611;-83
2022/01/08 02:32:09;;;;;;;2.58;1.02;;;18.00;52.10;;;;;;5100755;28;20175;-83
2022/01/08 02:34:36;;;;;;;1.77;0.80;;;18.00;52.20;;;;;;5120225;27;20605;-83
2022/01/08 02:37:03;;;;;;;1.10;0.95;;;18.00;52.20;;;;;;5117666;28;20175;-83
2022/01/08 02:39:30;;;;;;;2.17;0.90;;;18.00;52.20;;;;;;5117862;28;20194;-83
2022/01/08 02:41:59;;;;;;;1.60;1.00;;;18.00;52.20;;;;;;5100769;28;20144;-83
2022/01/08 02:44:30;;;;;;;2.60;0.70;;;18.00;52.30;;;;;;5117890;28;20168;-83
2022/01/08 02:46:57;;;;;;;1.88;1.02;;;18.00;52.20;;;;;;5100425;28;20164;-83
2022/01/08 02:49:23;;;;;;;2.65;1.33;;;18.00;52.20;;;;;;5083787;28;20168;-83
2022/01/08 02:51:56;;;;;;;1.63;1.00;;;18.00;52.10;;;;;;5101156;28;20153;-83
2022/01/08 02:54:35;;;;;;;1.73;0.90;;;18.00;52.10;;;;;;5100537;28;20192;-83
2022/01/08 02:57:01;;;;;;;1.48;0.85;;;18.00;52.10;;;;;;5118514;28;20219;-82
2022/01/08 02:59:26;;;;;;;1.85;1.10;;;18.00;52.20;;;;;;5100882;28;20203;-83
2022/01/08 03:01:53;;;;;;;1.63;0.85;;;18.00;52.20;;;;;;5117264;28;20187;-83
2022/01/08 03:04:20;;;;;;;2.40;1.23;;;18.00;52.20;;;;;;5100524;28;20236;-83
2022/01/08 03:06:45;;;;;;;1.20;0.82;;;18.00;52.20;;;;;;5100576;28;20167;-83
2022/01/08 03:09:12;;;;;;;1.40;0.95;;;18.00;52.20;;;;;;5100702;28;20160;-83
2022/01/08 03:11:43;;;;;;;2.08;1.05;;;18.00;52.20;;;;;;5117110;28;20285;-83
2022/01/08 03:14:09;;;;;;;1.83;0.98;;;18.00;52.30;;;;;;5100272;28;20175;-83
2022/01/08 03:16:38;;;;;;;2.17;0.90;;;18.00;52.20;;;;;;5099482;28;20167;-84
2022/01/08 03:19:10;;;;;;;2.03;0.95;;;17.90;52.10;;;;;;5099364;28;20657;-83
2022/01/08 03:21:40;;;;;;;1.55;0.98;;;18.00;52.10;;;;;;5084165;28;20179;-83
2022/01/08 03:24:09;;;;;;;2.65;0.90;;;17.90;52.30;;;;;;5100492;28;20262;-84
2022/01/08 03:26:40;;;;;;;1.77;1.05;;;17.90;52.30;;;;;;5116965;28;20167;-84
2022/01/08 03:29:06;;;;;;;1.10;0.80;;;17.90;52.20;;;;;;5099723;28;20672;-83
2022/01/08 03:31:36;;;;;;;1.80;1.00;;;17.90;52.30;;;;;;5100037;28;20160;-83
2022/01/08 03:34:04;;;;;;;1.92;0.90;;;17.90;52.20;;;;;;5118075;28;20536;-83
2022/01/08 03:36:31;;;;;;;1.92;0.85;;;17.90;52.20;;;;;;5099741;28;20164;-83
2022/01/08 03:39:01;;;;;;;2.13;0.70;;;17.90;52.20;;;;;;5083038;28;20190;-83
2022/01/08 03:41:28;;;;;;;1.45;0.98;;;17.90;52.20;;;;;;5099621;28;20164;-83
2022/01/08 03:43:54;;;;;;;1.20;1.08;;;18.00;52.40;;;;;;5085907;28;20245;-83
2022/01/08 03:46:20;;;;;;;1.23;0.80;;;17.90;52.30;;;;;;5120088;28;20144;-83
2022/01/08 03:49:11;;;;;;;1.67;0.70;;;17.90;52.30;;;;;;5103875;28;20650;-83
2022/01/08 03:51:40;;;;;;;2.28;0.70;;;17.90;52.30;;;;;;5120709;27;20171;-83
2022/01/08 03:54:06;;;;;;;2.22;1.13;;;17.90;52.10;;;;;;5103651;28;20140;-83
2022/01/08 03:56:32;;;;;;;1.40;0.98;;;17.90;52.20;;;;;;5120495;27;20161;-83
2022/01/08 03:58:57;;;;;;;2.10;1.10;;;17.90;52.30;;;;;;5140913;27;20506;-83
2022/01/08 04:01:31;;;;;;;2.28;1.00;;;17.90;52.30;;;;;;5141053;27;20234;-84
2022/01/08 04:04:00;;;;;;;2.92;0.93;;;18.00;52.40;;;;;;5106398;27;20171;-83
2022/01/08 04:06:30;;;;;;;2.05;0.98;;;17.90;52.40;;;;;;5141219;27;20160;-83
2022/01/08 04:08:58;;;;;;;2.97;0.98;;;17.90;52.30;;;;;;5123564;27;20156;-83
2022/01/08 04:11:25;;;;;;;1.85;1.17;;;17.90;52.30;;;;;;5140952;27;20147;-84
2022/01/08 04:13:53;;;;;;;0.90;0.80;;;17.90;52.30;;;;;;5140600;27;20156;-83
2022/01/08 04:16:28;;;;;;;2.63;1.27;;;17.90;52.30;;;;;;5140190;27;20667;-83
2022/01/08 04:18:54;;;;;;;1.48;0.95;;;17.90;52.40;;;;;;5122656;27;20175;-83
2022/01/08 04:24:08;;;;;;;2.03;1.30;;;17.90;52.40;;;;;;5140489;27;20194;-83
2022/01/08 04:26:37;;;;;;;1.50;0.90;;;17.80;52.50;;;;;;5106265;27;20171;-83
2022/01/08 04:29:05;;;;;;;2.08;0.90;;;17.90;52.40;;;;;;5140317;27;20175;-83
2022/01/08 04:31:30;;;;;;;1.60;0.95;;;17.90;52.40;;;;;;5140101;27;20148;-83
2022/01/08 04:33:59;;;;;;;2.17;1.00;;;17.80;52.40;;;;;;5140136;27;20171;-83
2022/01/08 04:36:29;;;;;;;2.80;1.20;;;17.80;52.30;;;;;;5122601;27;20198;-83
2022/01/08 04:38:55;;;;;;;1.33;0.90;;;17.90;52.30;;;;;;5122777;27;20625;-83
2022/01/08 04:41:21;;;;;;;2.10;1.10;;;17.90;52.40;;;;;;5121759;27;20203;-83
2022/01/08 04:43:47;;;;;;;2.08;0.90;;;17.90;52.30;;;;;;5140057;27;20175;-83
2022/01/08 04:46:15;;;;;;;1.58;0.95;;;17.90;52.30;;;;;;5122319;27;20199;-83
2022/01/08 04:48:42;;;;;;;1.35;0.98;;;17.90;52.40;;;;;;5122163;27;20242;-83
2022/01/08 04:51:09;;;;;;;1.80;1.08;;;17.80;52.40;;;;;;5139940;27;20167;-83
2022/01/08 04:53:36;;;;;;;1.15;0.90;;;17.80;52.40;;;;;;5138975;27;20167;-83
2022/01/08 04:56:03;;;;;;;2.03;1.23;;;17.80;52.40;;;;;;5139698;27;20304;-83
2022/01/08 04:58:28;;;;;;;2.47;0.98;;;17.80;52.40;;;;;;5139570;27;20685;-83
2022/01/08 05:00:57;;;;;;;1.65;0.90;;;17.80;52.50;;;;;;5105627;27;20259;-83
2022/01/08 05:03:23;;;;;;;1.13;0.88;;;17.80;52.50;;;;;;5139789;27;20167;-83
2022/01/08 05:05:48;;;;;;;1.73;1.00;;;17.80;52.30;;;;;;5139134;27;20506;-84
2022/01/08 05:08:14;;;;;;;1.35;0.90;;;17.80;52.40;;;;;;5138954;27;20625;-83
2022/01/08 05:10:41;;;;;;;2.00;1.15;;;17.80;52.30;;;;;;5139603;27;20655;-83
2022/01/08 05:13:08;;;;;;;1.80;0.98;;;17.80;52.40;;;;;;5138844;27;20224;-83
2022/01/08 05:15:38;;;;;;;1.52;0.95;;;17.80;52.40;;;;;;5105019;27;20651;-84
2022/01/08 05:18:07;;;;;;;1.17;0.80;;;17.80;52.50;;;;;;5122105;27;20212;-83
2022/01/08 05:20:39;;;;;;;1.48;0.90;;;17.80;52.40;;;;;;5121684;27;20203;-83
2022/01/08 05:23:04;;;;;;;1.75;0.80;;;17.80;52.50;;;;;;5121930;27;20259;-83
2022/01/08 05:25:39;;;;;;;1.42;0.80;;;17.80;52.50;;;;;;5139156;27;20175;-83
2022/01/08 05:28:05;;;;;;;1.08;0.80;;;17.80;52.40;;;;;;5122177;27;20648;-83
2022/01/08 05:30:40;;;;;;;1.98;1.00;;;17.70;52.60;;;;;;5121645;27;20195;-84
2022/01/08 05:33:06;;;;;;;1.75;1.00;;;17.80;52.40;;;;;;5104892;27;20261;-83
2022/01/08 05:35:33;;;;;;;1.55;1.00;;;17.80;52.50;;;;;;5139532;27;20207;-83
2022/01/08 05:38:02;;;;;;;2.33;1.10;;;17.80;53.00;;;;;;5139051;27;20156;-83
2022/01/08 05:40:28;;;;;;;2.22;0.88;;;17.80;52.40;;;;;;5121501;27;20294;-83
2022/01/08 05:42:55;;;;;;;1.88;1.08;;;17.80;52.40;;;;;;5138626;27;20230;-83
2022/01/08 05:45:20;;;;;;;1.42;0.88;;;17.80;52.60;;;;;;5139151;27;20160;-83
2022/01/08 05:47:46;;;;;;;2.72;1.00;;;17.80;52.50;;;;;;5122051;27;20591;-83
2022/01/08 05:50:16;;;;;;;1.55;0.90;;;17.80;52.50;;;;;;5121095;27;20182;-84
2022/01/08 05:52:45;;;;;;;1.35;0.90;;;17.80;52.40;;;;;;5122137;27;20164;-83
2022/01/08 05:55:12;;;;;;;1.40;0.80;;;17.80;52.60;;;;;;5121607;27;20167;-83
2022/01/08 05:57:38;;;;;;;2.00;1.00;;;17.80;52.60;;;;;;5111902;28;20273;-84
2022/01/08 06:00:08;;;;;;;1.75;0.90;;;17.80;52.40;;;;;;5084305;28;20192;-83
2022/01/08 06:02:36;;;;;;;1.83;0.95;;;17.70;52.40;;;;;;5119889;28;20614;-83
2022/01/08 06:05:04;;;;;;;1.60;0.77;;;17.80;52.40;;;;;;5083536;28;20152;-83
2022/01/08 06:07:33;;;;;;;3.97;0.90;;;17.80;52.50;;;;;;5083952;28;20164;-83
2022/01/08 06:09:59;;;;;;;1.35;1.08;;;17.80;52.50;;;;;;5084539;28;20191;-83
2022/01/08 06:12:32;;;;;;;1.42;0.80;;;17.70;53.20;;;;;;5084040;28;20622;-83
2022/01/08 06:14:57;;;;;;;1.70;1.05;;;17.80;52.50;;;;;;5100750;28;20588;-83
2022/01/08 06:17:25;;;;;;;1.48;1.00;;;17.80;52.50;;;;;;5117967;28;20619;-83
2022/01/08 06:19:51;;;;;;;2.33;1.00;;;17.80;52.40;;;;;;5116556;28;20188;-83
2022/01/08 06:22:18;;;;;;;1.10;0.70;;;17.80;52.50;;;;;;5116568;28;20250;-83
2022/01/08 06:24:45;;;;;;;1.52;0.90;;;17.70;52.60;;;;;;5115668;28;20160;-84
2022/01/08 06:27:11;;;;;;;1.35;0.85;;;17.70;52.60;;;;;;5115253;28;20152;-84
2022/01/08 06:29:37;;;;;;;2.53;1.10;;;17.70;52.50;;;;;;5115796;28;20619;-83
2022/01/08 06:32:07;;;;;;;1.63;0.80;;;17.70;52.50;;;;;;5099157;28;20693;-84
2022/01/08 06:34:33;;;;;;;3.33;1.13;;;17.80;52.40;;;;;;5116631;28;20264;-84
2022/01/08 06:36:58;;;;;;;1.20;0.70;;;17.70;52.50;;;;;;5133141;27;20175;-84
2022/01/08 06:39:25;;;;;;;0.73;0.70;;;17.70;52.60;;;;;;5098553;28;20192;-84
2022/01/08 06:41:59;;;;;;;2.53;1.20;;;17.80;52.60;;;;;;5099229;28;20171;-84
2022/01/08 06:44:27;;;;;;;1.48;0.93;;;17.60;52.60;;;;;;5133851;27;20192;-84
2022/01/08 06:46:53;;;;;;;1.42;0.88;;;17.70;52.50;;;;;;5099496;28;20194;-83
2022/01/08 06:49:25;;;;;;;1.80;0.85;;;17.70;52.50;;;;;;5100597;28;20263;-84
2022/01/08 06:51:52;;;;;;;1.85;0.85;;;17.70;52.50;;;;;;5134190;27;20155;-83
2022/01/08 06:54:17;;;;;;;1.17;0.90;;;17.70;52.60;;;;;;5116349;28;20239;-83
2022/01/08 06:56:43;;;;;;;1.10;0.98;;;17.70;52.50;;;;;;5118038;27;20187;-83
2022/01/08 06:59:12;;;;;;;1.38;0.80;;;17.70;52.60;;;;;;5143279;28;20171;-84
2022/01/08 07:01:37;;;;;;;1.23;0.90;;;17.60;52.50;;;;;;5121733;28;20168;-84
2022/01/08 07:04:04;;;;;;;1.05;0.80;;;17.80;52.30;;;;;;5128402;28;20180;-84
2022/01/08 07:06:31;;;;;;;2.78;0.82;;;17.70;52.40;;;;;;5128855;28;20164;-83
2022/01/08 07:08:57;;;;;;;2.67;1.02;;;17.80;52.10;;;;;;5112966;28;20164;-84
2022/01/08 07:11:23;;;;;;;2.13;0.82;;;17.80;52.40;;;;;;5127668;28;20183;-83
2022/01/08 07:13:49;;;;;;;1.15;0.93;;;17.80;52.40;;;;;;5144760;27;20152;-83
2022/01/08 07:16:14;;;;;;;2.15;0.90;;;17.80;52.40;;;;;;5127200;28;20244;-84
2022/01/08 07:18:43;;;;;;;2.60;0.80;;;17.80;52.40;;;;;;5128644;28;20251;-85
2022/01/08 07:21:09;;;;;;;1.00;0.80;;;17.80;52.20;;;;;;5127014;28;20192;-85
2022/01/08 07:23:36;;;;;;;0.75;0.70;;;17.90;52.30;;;;;;5125816;28;20215;-85
2022/01/08 07:26:04;;;;;;;0.93;0.80;;;18.00;50.90;;;;;;5124919;28;20160;-84
2022/01/08 07:28:30;;;;;;;1.63;0.80;;;18.10;50.90;;;;;;5125550;27;20164;-85
2022/01/08 07:30:59;;;;;;;1.70;0.90;;;18.20;50.40;;;;;;5086562;28;20195;-84
2022/01/08 07:33:26;;;;;;;1.00;0.90;;;18.20;50.70;;;;;;5085967;28;20173;-84
2022/01/08 07:35:54;;;;;;;1.63;0.90;;;18.20;50.70;;;;;;5101922;28;20161;-83
2022/01/08 07:38:22;;;;;;;3.58;1.00;;;18.20;50.70;;;;;;5084386;28;20164;-84
2022/01/08 07:40:51;;;;;;;2.10;0.75;;;18.30;50.50;;;;;;5101545;28;20647;-84
2022/01/08 07:43:19;;;;;;;1.23;0.80;;;18.30;50.50;;;;;;5101121;28;20149;-83
2022/01/08 07:45:47;;;;;;;0.95;0.65;;;18.30;50.20;;;;;;5101091;28;20153;-84
2022/01/08 07:48:15;;;;;;;1.63;0.85;;;18.30;50.20;;;;;;5100799;28;20232;-83
2022/01/08 07:50:41;;;;;;;1.20;0.82;;;18.40;50.30;;;;;;5084715;28;20180;-84
2022/01/08 07:53:08;;;;;;;0.85;0.70;;;18.40;50.30;;;;;;5085220;28;20168;-83
2022/01/08 07:55:36;;;;;;;1.77;0.80;;;18.40;50.20;;;;;;5101670;28;20163;-83
2022/01/08 07:58:02;;;;;;;1.67;0.90;;;18.50;50.20;;;;;;5087744;28;20717;-84
2022/01/08 08:00:28;;;;;;;2.05;0.90;;;18.50;50.10;;;;;;5103215;28;20180;-85
2022/01/08 08:03:00;;;;;;;1.75;0.75;;;18.50;50.10;;;;;;5086541;28;20176;-84
2022/01/08 08:05:25;;;;;;;2.03;1.00;;;18.50;50.00;;;;;;5119332;28;20163;-84
2022/01/08 08:07:56;;;;;;;1.17;0.70;;;18.60;50.10;;;;;;5103513;28;20148;-84
2022/01/08 08:10:25;;;;;;;1.50;0.80;;;18.60;49.90;;;;;;5102969;28;20156;-84
2022/01/08 08:12:53;;;;;;;0.80;0.65;;;18.60;49.90;;;;;;5119926;27;20152;-84
2022/01/08 08:15:20;;;;;;;0.88;0.70;;;18.60;49.80;;;;;;5103213;28;20163;-85
2022/01/08 08:17:45;;;;;;;3.45;0.80;;;18.60;49.80;;;;;;5085677;28;20161;-84
2022/01/08 08:20:14;;;;;;;0.95;0.63;;;18.60;49.80;;;;;;5084659;28;20288;-85
2022/01/08 08:22:39;;;;;;;2.47;0.68;;;18.70;49.90;;;;;;5087360;28;20522;-84
2022/01/08 08:25:07;;;;;;;1.65;0.95;;;18.70;49.60;;;;;;5084523;28;20156;-83
2022/01/08 08:27:32;;;;;;;0.80;0.80;;;18.70;49.80;;;;;;5099713;28;20160;-83
2022/01/08 08:29:58;;;;;;;1.85;0.82;;;18.70;49.60;;;;;;5102122;28;20178;-82
2022/01/08 08:32:25;;;;;;;1.42;0.80;;;18.70;49.80;;;;;;5102739;28;20168;-83
2022/01/08 08:34:51;;;;;;;0.77;0.65;;;18.70;49.60;;;;;;5104516;28;20609;-85
2022/01/08 08:37:18;;;;;;;2.38;0.88;;;18.80;49.60;;;;;;5119101;28;20498;-84
2022/01/08 08:39:44;;;;;;;3.38;0.85;;;18.80;49.60;;;;;;5121371;28;20184;-85
2022/01/08 08:42:10;;;;;;;0.70;0.70;;;18.80;49.50;;;;;;5104803;28;20152;-85
2022/01/08 08:44:35;;;;;;;1.05;0.60;;;18.80;49.10;;;;;;5123582;28;20269;-85
2022/01/08 08:47:03;;;;;;;1.00;0.70;;;18.90;49.80;;;;;;5102063;28;20156;-85
2022/01/08 08:49:29;;;;;;;0.77;0.77;;;18.90;49.40;;;;;;5121557;28;20252;-82
2022/01/08 08:52:01;;;;;;;2.50;0.93;;;18.80;49.60;;;;;;5125399;28;20167;-85
2022/01/08 08:54:32;;;;;;;8.15;1.00;;;18.90;49.40;;;;;;5109760;28;20506;-85
2022/01/08 08:57:05;;;;;;;1.83;0.90;;;19.00;49.10;;;;;;5112720;28;20272;-86
2022/01/08 08:59:33;;;;;;;2.30;1.00;;;19.00;49.50;;;;;;5092332;28;20193;-85
2022/01/08 09:02:01;;;;;;;0.82;0.73;;;19.00;49.40;;;;;;5107533;28;20152;-84
2022/01/08 09:04:27;;;;;;;2.35;0.80;;;19.00;49.40;;;;;;5109672;28;20220;-83
2022/01/08 09:06:56;;;;;;;0.85;0.70;;;19.10;49.50;;;;;;5119881;28;20212;-84
2022/01/08 09:09:25;;;;;;;1.92;0.95;;;19.10;49.40;;;;;;5123835;28;20140;-83
2022/01/08 09:11:51;;;;;;;2.42;0.90;;;19.10;49.50;;;;;;5124451;28;20156;-86
2022/01/08 09:14:17;;;;;;;2.85;0.80;;;19.10;49.60;;;;;;5121558;28;20203;-85
2022/01/08 09:16:47;;;;;;;0.75;0.70;;;19.00;49.60;;;;;;5105367;28;20168;-85
2022/01/08 09:19:16;;;;;;;2.33;1.02;;;19.10;49.20;;;;;;5117910;28;20165;-86
2022/01/08 09:21:45;;;;;;;0.80;0.68;;;19.20;50.20;;;;;;5125665;28;20261;-84
2022/01/08 09:24:11;;;;;;;2.88;1.00;;;19.20;49.50;;;;;;5106674;28;20160;-85
2022/01/08 09:26:36;;;;;;;2.85;0.80;;;19.20;50.00;;;;;;5100867;28;20218;-84
2022/01/08 09:29:02;;;;;;;1.70;0.80;;;19.30;50.10;;;;;;5083656;28;20160;-84
2022/01/08 09:31:28;;;;;;;1.45;0.85;;;19.30;49.90;;;;;;5100319;28;20156;-84
2022/01/08 09:33:54;;;;;;;1.23;0.88;;;19.20;49.50;;;;;;5100563;28;20503;-83
2022/01/08 09:36:19;;;;;;;1.92;0.90;;;19.30;49.50;;;;;;5100403;28;20179;-83
2022/01/08 09:38:45;;;;;;;1.25;0.90;;;19.40;49.50;;;;;;5101925;28;20171;-82
2022/01/08 09:41:11;;;;;;;3.03;0.90;;;19.30;49.60;;;;;;5099359;28;20247;-83
2022/01/08 09:43:39;;;;;;;2.88;0.85;;;19.30;49.60;;;;;;5104141;28;20160;-83
2022/01/08 09:46:04;;;;;;;1.80;1.02;;;19.30;49.60;;;;;;5086074;28;20262;-83
2022/01/08 09:48:30;;;;;;;5.95;0.88;;;19.40;49.70;;;;;;5100329;28;20524;-85
2022/01/08 09:50:56;;;;;;;1.45;0.80;;;19.40;49.70;;;;;;5102899;28;20590;-83
2022/01/08 09:53:22;;;;;;;5.07;1.20;;;19.40;49.80;;;;;;5104225;28;20164;-84
2022/01/08 09:55:48;;;;;;;1.00;0.90;;;19.40;49.80;;;;;;5084861;28;20164;-84
2022/01/08 09:58:14;;;;;;;0.95;0.57;;;19.40;49.90;;;;;;5097678;27;20246;-81
2022/01/08 10:00:43;;;;;;;3.60;1.27;;;19.40;50.10;;;;;;5111841;28;20199;-82
2022/01/08 10:03:19;;;;;;;1.10;0.77;;;19.40;49.90;;;;;;5104256;27;20212;-84
2022/01/08 10:05:47;;;;;;;3.15;0.90;;;19.50;50.00;;;;;;5100288;28;20182;-83
2022/01/08 10:08:15;;;;;;;3.75;0.88;;;19.50;50.10;;;;;;5080414;28;20288;-84
2022/01/08 10:10:46;;;;;;;4.38;1.15;;;19.50;50.10;;;;;;5082799;28;20675;-85
2022/01/08 10:13:21;;;;;;;2.00;0.95;;;19.50;49.70;;;;;;5083622;28;20202;-84
2022/01/08 10:18:33;;;;;;;1.20;0.88;;;19.60;50.00;;;;;;5100151;28;20152;-83
2022/01/08 10:21:02;;;;;;;2.22;1.23;;;19.60;50.20;;;;;;5102170;28;20214;-84
2022/01/08 10:23:30;;;;;;;2.75;1.05;;;19.70;50.00;;;;;;5100386;28;20227;-83
2022/01/08 10:26:00;;;;;;;3.03;1.10;;;19.70;49.90;;;;;;5099175;28;20153;-85
2022/01/08 10:28:57;;;;;;;2.40;1.23;;;19.70;49.80;;;;;;5098075;28;20148;-84
2022/01/08 10:31:33;;;;;;;2.95;1.20;;;19.70;49.80;;;;;;5098552;28;20255;-84
2022/01/08 10:34:08;;;;;;;3.95;1.80;;;19.70;49.70;;;;;;5098674;28;20193;-84
2022/01/08 10:36:38;;;;;;;5.43;1.27;;;19.70;49.70;;;;;;5099442;28;20160;-82
2022/01/08 10:39:06;;;;;;;10.18;1.58;;;19.70;49.80;;;;;;5098184;28;20663;-83
2022/01/08 10:41:33;;;;;;;6.55;1.70;;;19.70;50.20;;;;;;5097284;28;20242;-83
2022/01/08 10:44:22;;;;;;;6.30;1.40;;;19.70;50.60;;;;;;5080601;28;20207;-83
2022/01/08 10:47:10;;;;;;;5.30;1.45;;;19.70;50.10;;;;;;5081390;28;20156;-83
2022/01/08 10:49:42;;;;;;;9.45;1.73;;;19.70;50.30;;;;;;5100284;28;20164;-84
2022/01/08 10:52:09;;;;;;;7.10;1.45;;;19.80;50.10;;;;;;5096436;28;20612;-83
2022/01/08 10:54:36;;;;;;;8.73;1.67;;;19.70;50.30;;;;;;5079790;28;20353;-82
2022/01/08 10:57:03;;;;;;;7.82;1.40;;;19.70;50.40;;;;;;5079390;28;20207;-83
2022/01/08 10:59:30;;;;;;;10.30;1.90;;;19.80;51.20;;;;;;5096314;28;20152;-82
2022/01/08 11:01:58;;;;;;;9.40;1.52;;;19.80;51.50;;;;;;5096513;28;20248;-83
2022/01/08 11:04:46;;;;;;;9.18;1.42;;;19.80;51.30;;;;;;5095896;28;20186;-83
2022/01/08 11:07:25;;;;;;;8.73;1.60;;;19.70;51.10;;;;;;5115888;28;20144;-81
2022/01/08 11:09:53;;;;;;;6.10;1.58;;;19.80;51.20;;;;;;5117726;28;20159;-84
2022/01/08 11:12:25;;;;;;;9.43;1.50;;;19.70;51.20;;;;;;5117917;28;20156;-84
2022/01/08 11:17:34;;;;;;;5.47;1.75;;;19.70;51.00;;;;;;5087638;28;20618;-84
2022/01/08 11:20:05;;;;;;;9.07;1.60;;;19.70;50.80;;;;;;5114869;28;20236;-82
2022/01/08 11:22:33;;;;;;;9.52;1.85;;;19.70;50.80;;;;;;5080037;28;20618;-84
2022/01/08 11:25:00;;;;;;;6.20;1.50;;;19.80;51.00;;;;;;5081606;28;20164;-84
2022/01/08 11:27:44;;;;;;;7.63;1.95;;;19.80;50.80;;;;;;5100974;28;20157;-83
2022/01/08 11:30:14;;;;;;;11.60;1.85;;;19.70;50.50;;;;;;5084010;28;20163;-83
2022/01/08 11:32:40;;;;;;;16.30;2.22;;;19.70;50.70;;;;;;5098762;28;20239;-84
2022/01/08 11:35:08;;;;;;;6.10;2.00;;;19.80;50.10;;;;;;5116567;28;20234;-85
2022/01/08 11:37:36;;;;;;;6.03;1.77;;;19.80;50.50;;;;;;5107062;28;20224;-84
2022/01/08 11:40:06;;;;;;;4.63;2.03;;;19.70;50.40;;;;;;5079310;28;20206;-84
2022/01/08 11:42:38;;;;;;;5.85;1.83;;;19.70;51.20;;;;;;5097724;28;20149;-85
2022/01/08 11:45:05;;;;;;;7.10;2.05;;;19.80;50.90;;;;;;5064635;28;20172;-84
2022/01/08 11:47:31;;;;;;;7.90;1.80;;;19.70;50.50;;;;;;5062804;28;20176;-84
2022/01/08 11:49:58;;;;;;;7.10;1.98;;;19.70;51.30;;;;;;5082667;28;20165;-84
2022/01/08 11:52:24;;;;;;;7.63;1.95;;;19.70;51.10;;;;;;5080101;28;20160;-84
2022/01/08 11:54:55;;;;;;;6.65;1.98;;;19.60;51.30;;;;;;5080035;28;20187;-84
2022/01/08 11:57:26;;;;;;;7.00;1.80;;;19.60;50.70;;;;;;5078678;28;20208;-82
2022/01/08 11:59:56;;;;;;;13.20;1.73;;;19.60;51.80;;;;;;5101696;28;20237;-83
2022/01/08 12:02:38;;;;;;;8.77;2.10;;;19.70;52.60;;;;;;5101583;28;20148;-85
2022/01/08 12:05:07;;;;;;;8.15;2.00;;;19.60;51.70;;;;;;5108011;28;20148;-87
2022/01/08 12:07:39;;;;;;;13.65;2.15;;;19.70;51.70;;;;;;5062607;28;20285;-84
2022/01/08 12:10:21;;;;;;;5.97;1.85;;;19.70;51.70;;;;;;5046583;28;20223;-85
2022/01/08 12:13:11;;;;;;;8.35;2.15;;;19.70;51.60;;;;;;5064609;28;20308;-84
2022/01/08 12:15:50;;;;;;;7.28;2.20;;;19.60;51.60;;;;;;5061843;28;20564;-83
2022/01/08 12:19:02;;;;;;;8.55;2.00;;;19.70;51.40;;;;;;5044737;28;20209;-83
2022/01/08 12:21:32;;;;;;;5.82;1.98;;;19.70;51.00;;;;;;5028045;28;20215;-84
2022/01/08 12:23:59;;;;;;;4.80;1.98;;;19.60;50.90;;;;;;5058307;28;20214;-83
2022/01/08 12:26:37;;;;;;;7.10;1.92;;;19.70;50.50;;;;;;5043017;28;20185;-84
2022/01/08 12:29:04;;;;;;;10.15;2.60;;;19.70;50.50;;;;;;5041843;28;20512;-83
2022/01/08 12:31:44;;;;;;;8.80;2.00;;;19.70;50.60;;;;;;5042382;28;20281;-82
2022/01/08 12:34:31;;;;;;;11.00;1.92;;;19.70;52.30;;;;;;5041260;28;20316;-84
2022/01/08 12:37:10;;;;;;;8.43;2.00;;;19.70;50.40;;;;;;5042694;28;20232;-84
2022/01/08 12:39:50;;;;;;;8.70;2.20;;;19.70;51.20;;;;;;5098986;28;20206;-83
2022/01/08 12:42:44;;;;;;;6.85;2.03;;;19.70;51.60;;;;;;5083970;28;20226;-83
2022/01/08 12:45:19;;;;;;;5.65;1.90;;;19.70;51.10;;;;;;5086410;28;20184;-85
2022/01/08 12:48:05;;;;;;;10.95;2.20;;;19.60;51.40;;;;;;5105534;28;20233;-85
2022/01/08 12:50:35;;;;;;;4.30;1.88;;;19.60;51.20;;;;;;5086826;28;20263;-86
2022/01/08 12:53:27;;;;;;;6.85;2.08;;;19.70;51.20;;;;;;5085962;28;20631;-84
2022/01/08 12:55:54;;;;;;;10.77;1.98;;;19.70;50.80;;;;;;5086980;28;20216;-83
2022/01/08 12:58:29;;;;;;;11.25;2.47;;;19.70;51.40;;;;;;5101642;28;20223;-85
2022/01/08 13:00:59;;;;;;;9.13;2.30;;;19.70;51.10;;;;;;5068907;28;20219;-83
2022/01/08 13:03:25;;;;;;;6.53;2.30;;;19.60;50.90;;;;;;5083940;28;20260;-83
2022/01/08 13:05:53;;;;;;;7.72;2.20;;;19.70;51.60;;;;;;5085192;28;20149;-85
2022/01/08 13:08:23;;;;;;;4.10;2.05;;;19.70;51.20;;;;;;5046650;28;20190;-84
2022/01/08 13:10:56;;;;;;;6.40;2.50;;;19.70;51.10;;;;;;5027255;28;20186;-85
2022/01/08 13:13:23;;;;;;;6.22;2.50;;;19.70;50.40;;;;;;5042881;28;20166;-84
2022/01/08 13:15:54;;;;;;;8.20;2.28;;;19.70;50.50;;;;;;5043001;28;20308;-84
2022/01/08 13:18:21;;;;;;;10.35;2.47;;;19.70;50.90;;;;;;5042650;28;20231;-84
2022/01/08 13:21:05;;;;;;;8.35;2.50;;;19.70;50.80;;;;;;5026282;28;20202;-83